Stoneykirk, United Kingdom

3:44 PM GMT on February 08, 2016 (GMT +0000)
Lochans | | Change Station
CLOSE
Current Station
Personal Weather Station
Location: Stranraer, WIGTOWNSHIRE
Elevation: 90 ft
Nearby Weather Stations

Elev 90 ft 54.87 °N, 5.01 °W | Updated 10 minutes ago

Rain
Rain
45.9 °F
Feels Like 42 °F
N
7.0
Wind Variable Wind from WNW
Gusts 20.0 mph

Today
High -- | Low -- °F
--% Chance of Precip.
Yesterday
High -- | Low -- °F
Precip. -- in
Pressure 28.85 in
Visibility 6.2 miles
Clouds Few 1200 ft
Scattered Clouds 2500 ft
Mostly Cloudy 4000 ft
Windchill 42 °F
Dew Point 43 °F
Humidity 90%
Rainfall 0.05 in
Snow Depth Not available.
7:57 AM 5:10 PM
New Moon, 0% visible
METAR EGAC 081520Z 27014G28KT 230V290 9999 VCSH FEW012 SCT025 BKN040 08/02 Q0977
Pressure 28.85 in
Visibility 6.2 miles
Clouds Few 1200 ft
Scattered Clouds 2500 ft
Mostly Cloudy 4000 ft
Windchill 42 °F
Dew Point 43 °F
Humidity 90%
Rainfall 0.05 in
Snow Depth Not available.
7:57 AM 5:10 PM
New Moon, 0% visible
METAR EGAC 081520Z 27014G28KT 230V290 9999 VCSH FEW012 SCT025 BKN040 08/02 Q0977

10-Day Weather Forecast

Almanac

Astronomy

Feb. 08, 2016 Rise Set
Actual Time
Civil Twilight
Nautical Twilight
Astronomical Twilight
Moon
Length of Visible Light
Length of Day
Tomorrow will be .
, % of the Moon is Illuminated

Today's Extremes

Country Highs Country Lows

Community

WunderPhotos

Upload Photos

1,891,440 photos uploaded!

WunderBlog® & News

Nearby

Air Quality

  Air Quality AQ Index Pollutant
Not available.

Snow Depth

Station Depth Elevation

Earthquake Activity

City Distance Mag. Time & Date
Minimum magnitude displayed is 2.5.

Coastal Water Temperatures

Place Temperature

Stations

Nearby Weather Stations

Station Location Temp. Windchill Dew Point Humidity Wind Precip. Elev Updated Type